sensor_id;sensor_type;location;lat;lon;timestamp;temperature;humidity
26907;DHT22;14472;56.880;16.658;2023-07-29T00:00:42;18.80;1.00
26907;DHT22;14472;56.880;16.658;2023-07-29T00:03:09;18.80;1.00
26907;DHT22;14472;56.880;16.658;2023-07-29T00:05:36;18.70;1.00
26907;DHT22;14472;56.880;16.658;2023-07-29T00:08:02;18.70;1.00
26907;DHT22;14472;56.880;16.658;2023-07-29T00:10:28;18.60;1.00
26907;DHT22;14472;56.880;16.658;2023-07-29T00:12:54;18.60;1.00
26907;DHT22;14472;56.880;16.658;2023-07-29T00:15:20;18.60;1.00
26907;DHT22;14472;56.880;16.658;2023-07-29T00:17:45;18.60;1.00
26907;DHT22;14472;56.880;16.658;2023-07-29T00:20:11;18.50;1.00
26907;DHT22;14472;56.880;16.658;2023-07-29T00:22:37;18.50;1.00
26907;DHT22;14472;56.880;16.658;2023-07-29T00:25:02;18.50;1.00
26907;DHT22;14472;56.880;16.658;2023-07-29T00:27:28;18.40;1.00
26907;DHT22;14472;56.880;16.658;2023-07-29T00:29:54;18.40;1.00
26907;DHT22;14472;56.880;16.658;2023-07-29T00:32:20;18.40;1.00
26907;DHT22;14472;56.880;16.658;2023-07-29T00:34:46;18.30;1.00
26907;DHT22;14472;56.880;16.658;2023-07-29T00:37:11;18.30;1.00
26907;DHT22;14472;56.880;16.658;2023-07-29T00:39:37;18.30;1.00
26907;DHT22;14472;56.880;16.658;2023-07-29T00:42:04;18.20;1.00
26907;DHT22;14472;56.880;16.658;2023-07-29T00:44:30;18.20;1.00
26907;DHT22;14472;56.880;16.658;2023-07-29T00:46:57;18.20;1.00
26907;DHT22;14472;56.880;16.658;2023-07-29T00:49:24;18.20;1.00
26907;DHT22;14472;56.880;16.658;2023-07-29T00:51:50;18.20;1.00
26907;DHT22;14472;56.880;16.658;2023-07-29T00:54:16;18.20;1.00
26907;DHT22;14472;56.880;16.658;2023-07-29T00:56:42;18.10;1.00
26907;DHT22;14472;56.880;16.658;2023-07-29T00:59:08;18.10;1.00
26907;DHT22;14472;56.880;16.658;2023-07-29T01:01:34;18.10;1.00
26907;DHT22;14472;56.880;16.658;2023-07-29T01:04:00;18.00;1.00
26907;DHT22;14472;56.880;16.658;2023-07-29T01:09:17;18.00;1.00
26907;DHT22;14472;56.880;16.658;2023-07-29T01:12:01;17.90;1.00
26907;DHT22;14472;56.880;16.658;2023-07-29T01:14:41;18.00;1.00
26907;DHT22;14472;56.880;16.658;2023-07-29T01:17:19;18.00;1.00
26907;DHT22;14472;56.880;16.658;2023-07-29T01:22:29;17.80;1.00
26907;DHT22;14472;56.880;16.658;2023-07-29T01:24:57;17.90;1.00
26907;DHT22;14472;56.880;16.658;2023-07-29T01:27:23;17.90;1.00
26907;DHT22;14472;56.880;16.658;2023-07-29T01:29:49;17.80;1.00
26907;DHT22;14472;56.880;16.658;2023-07-29T01:37:26;17.70;1.00
26907;DHT22;14472;56.880;16.658;2023-07-29T01:39:56;17.80;1.00
26907;DHT22;14472;56.880;16.658;2023-07-29T01:42:23;17.70;1.00
26907;DHT22;14472;56.880;16.658;2023-07-29T01:44:49;17.80;1.00
26907;DHT22;14472;56.880;16.658;2023-07-29T01:47:16;17.70;1.00
26907;DHT22;14472;56.880;16.658;2023-07-29T01:49:42;17.70;1.00
26907;DHT22;14472;56.880;16.658;2023-07-29T01:52:08;17.70;1.00
26907;DHT22;14472;56.880;16.658;2023-07-29T01:54:33;17.70;1.00
26907;DHT22;14472;56.880;16.658;2023-07-29T01:56:59;17.70;1.00
26907;DHT22;14472;56.880;16.658;2023-07-29T01:59:25;17.60;1.00
26907;DHT22;14472;56.880;16.658;2023-07-29T02:01:51;17.70;1.00
26907;DHT22;14472;56.880;16.658;2023-07-29T02:04:16;17.70;1.00
26907;DHT22;14472;56.880;16.658;2023-07-29T02:06:42;17.60;1.00
26907;DHT22;14472;56.880;16.658;2023-07-29T02:09:08;17.60;1.00
26907;DHT22;14472;56.880;16.658;2023-07-29T02:11:33;17.60;1.00
26907;DHT22;14472;56.880;16.658;2023-07-29T02:13:59;17.60;1.00
26907;DHT22;14472;56.880;16.658;2023-07-29T02:16:25;17.60;1.00
26907;DHT22;14472;56.880;16.658;2023-07-29T02:18:50;17.50;1.00
26907;DHT22;14472;56.880;16.658;2023-07-29T02:21:16;17.50;1.00
26907;DHT22;14472;56.880;16.658;2023-07-29T02:23:42;17.50;1.00
26907;DHT22;14472;56.880;16.658;2023-07-29T02:26:08;17.50;1.00
26907;DHT22;14472;56.880;16.658;2023-07-29T02:28:34;17.50;1.00
26907;DHT22;14472;56.880;16.658;2023-07-29T02:31:29;17.50;1.00
26907;DHT22;14472;56.880;16.658;2023-07-29T02:33:54;17.50;1.00
26907;DHT22;14472;56.880;16.658;2023-07-29T02:36:21;17.50;1.00
26907;DHT22;14472;56.880;16.658;2023-07-29T02:38:46;17.50;1.00
26907;DHT22;14472;56.880;16.658;2023-07-29T02:41:12;17.40;1.00
26907;DHT22;14472;56.880;16.658;2023-07-29T02:43:38;17.40;1.00
26907;DHT22;14472;56.880;16.658;2023-07-29T02:46:06;17.40;1.00
26907;DHT22;14472;56.880;16.658;2023-07-29T02:48:32;17.40;1.00
26907;DHT22;14472;56.880;16.658;2023-07-29T02:50:57;17.30;1.00
26907;DHT22;14472;56.880;16.658;2023-07-29T02:53:23;17.30;1.00
26907;DHT22;14472;56.880;16.658;2023-07-29T02:55:49;17.30;1.00
26907;DHT22;14472;56.880;16.658;2023-07-29T02:58:15;17.30;1.00
26907;DHT22;14472;56.880;16.658;2023-07-29T03:00:40;17.30;1.00
26907;DHT22;14472;56.880;16.658;2023-07-29T03:03:10;17.30;1.00
26907;DHT22;14472;56.880;16.658;2023-07-29T03:05:36;17.30;1.00
26907;DHT22;14472;56.880;16.658;2023-07-29T03:08:03;17.30;1.00
26907;DHT22;14472;56.880;16.658;2023-07-29T03:10:28;17.20;1.00
26907;DHT22;14472;56.880;16.658;2023-07-29T03:12:54;17.30;1.00
26907;DHT22;14472;56.880;16.658;2023-07-29T03:15:23;17.30;1.00
26907;DHT22;14472;56.880;16.658;2023-07-29T03:17:50;17.30;1.00
26907;DHT22;14472;56.880;16.658;2023-07-29T03:20:16;17.20;1.00
26907;DHT22;14472;56.880;16.658;2023-07-29T03:22:44;17.20;1.00
26907;DHT22;14472;56.880;16.658;2023-07-29T03:25:09;17.20;1.00
26907;DHT22;14472;56.880;16.658;2023-07-29T03:27:35;17.20;1.00
26907;DHT22;14472;56.880;16.658;2023-07-29T03:30:05;17.20;1.00
26907;DHT22;14472;56.880;16.658;2023-07-29T03:32:31;17.20;1.00
26907;DHT22;14472;56.880;16.658;2023-07-29T03:34:57;17.20;1.00
26907;DHT22;14472;56.880;16.658;2023-07-29T03:37:24;17.30;1.00
26907;DHT22;14472;56.880;16.658;2023-07-29T03:39:49;17.20;1.00
26907;DHT22;14472;56.880;16.658;2023-07-29T03:42:17;17.20;1.00
26907;DHT22;14472;56.880;16.658;2023-07-29T03:44:43;17.20;1.00
26907;DHT22;14472;56.880;16.658;2023-07-29T03:47:09;17.20;1.00
26907;DHT22;14472;56.880;16.658;2023-07-29T03:49:35;17.20;1.00
26907;DHT22;14472;56.880;16.658;2023-07-29T03:52:00;17.20;1.00
26907;DHT22;14472;56.880;16.658;2023-07-29T03:54:26;17.30;1.00
26907;DHT22;14472;56.880;16.658;2023-07-29T03:56:52;17.30;1.00
26907;DHT22;14472;56.880;16.658;2023-07-29T03:59:17;17.30;1.00
26907;DHT22;14472;56.880;16.658;2023-07-29T04:01:43;17.30;1.00
26907;DHT22;14472;56.880;16.658;2023-07-29T04:04:09;17.20;1.00
26907;DHT22;14472;56.880;16.658;2023-07-29T04:06:35;17.30;1.00
26907;DHT22;14472;56.880;16.658;2023-07-29T04:09:00;17.20;1.00
26907;DHT22;14472;56.880;16.658;2023-07-29T04:11:26;17.20;1.00
26907;DHT22;14472;56.880;16.658;2023-07-29T04:13:52;17.20;1.00
26907;DHT22;14472;56.880;16.658;2023-07-29T04:16:18;17.20;1.00
26907;DHT22;14472;56.880;16.658;2023-07-29T04:18:44;17.30;1.00
26907;DHT22;14472;56.880;16.658;2023-07-29T04:21:09;17.30;1.00
26907;DHT22;14472;56.880;16.658;2023-07-29T04:23:35;17.30;1.00
26907;DHT22;14472;56.880;16.658;2023-07-29T04:26:01;17.30;1.00
26907;DHT22;14472;56.880;16.658;2023-07-29T04:28:26;17.30;1.00
26907;DHT22;14472;56.880;16.658;2023-07-29T04:30:52;17.20;1.00
26907;DHT22;14472;56.880;16.658;2023-07-29T04:33:18;17.30;1.00
26907;DHT22;14472;56.880;16.658;2023-07-29T04:35:44;17.30;1.00
26907;DHT22;14472;56.880;16.658;2023-07-29T04:38:09;17.30;1.00
26907;DHT22;14472;56.880;16.658;2023-07-29T04:40:35;17.30;1.00
26907;DHT22;14472;56.880;16.658;2023-07-29T04:43:01;17.30;1.00
26907;DHT22;14472;56.880;16.658;2023-07-29T04:45:30;17.30;1.00
26907;DHT22;14472;56.880;16.658;2023-07-29T04:47:57;17.30;1.00
26907;DHT22;14472;56.880;16.658;2023-07-29T04:50:23;17.30;1.00
26907;DHT22;14472;56.880;16.658;2023-07-29T04:52:49;17.30;1.00
26907;DHT22;14472;56.880;16.658;2023-07-29T04:55:15;17.30;1.00
26907;DHT22;14472;56.880;16.658;2023-07-29T04:57:40;17.40;1.00
26907;DHT22;14472;56.880;16.658;2023-07-29T05:00:06;17.40;1.00
26907;DHT22;14472;56.880;16.658;2023-07-29T05:02:32;17.40;1.00
26907;DHT22;14472;56.880;16.658;2023-07-29T05:04:58;17.40;1.00
26907;DHT22;14472;56.880;16.658;2023-07-29T05:07:24;17.40;1.00
26907;DHT22;14472;56.880;16.658;2023-07-29T05:09:49;17.50;1.00
26907;DHT22;14472;56.880;16.658;2023-07-29T05:12:15;17.50;1.00
26907;DHT22;14472;56.880;16.658;2023-07-29T05:14:41;17.50;1.00
26907;DHT22;14472;56.880;16.658;2023-07-29T05:17:07;17.50;1.00
26907;DHT22;14472;56.880;16.658;2023-07-29T05:19:32;17.50;1.00
26907;DHT22;14472;56.880;16.658;2023-07-29T05:21:58;17.60;1.00
26907;DHT22;14472;56.880;16.658;2023-07-29T05:24:24;17.60;1.00
26907;DHT22;14472;56.880;16.658;2023-07-29T05:26:49;17.60;1.00
26907;DHT22;14472;56.880;16.658;2023-07-29T05:29:15;17.60;1.00
26907;DHT22;14472;56.880;16.658;2023-07-29T05:31:41;17.60;1.00
26907;DHT22;14472;56.880;16.658;2023-07-29T05:34:07;17.70;1.00
26907;DHT22;14472;56.880;16.658;2023-07-29T05:36:32;17.70;1.00
26907;DHT22;14472;56.880;16.658;2023-07-29T05:38:58;17.70;1.00
26907;DHT22;14472;56.880;16.658;2023-07-29T05:41:24;17.70;1.00
26907;DHT22;14472;56.880;16.658;2023-07-29T05:43:53;17.80;1.00
26907;DHT22;14472;56.880;16.658;2023-07-29T05:46:18;17.80;1.00
26907;DHT22;14472;56.880;16.658;2023-07-29T05:48:44;17.90;1.00
26907;DHT22;14472;56.880;16.658;2023-07-29T05:51:10;17.90;1.00
26907;DHT22;14472;56.880;16.658;2023-07-29T05:53:35;17.90;1.00
26907;DHT22;14472;56.880;16.658;2023-07-29T05:56:01;18.00;1.00
26907;DHT22;14472;56.880;16.658;2023-07-29T05:58:27;18.00;1.00
26907;DHT22;14472;56.880;16.658;2023-07-29T06:00:53;18.00;1.00
26907;DHT22;14472;56.880;16.658;2023-07-29T06:03:18;18.00;1.00
26907;DHT22;14472;56.880;16.658;2023-07-29T06:05:44;18.10;1.00
26907;DHT22;14472;56.880;16.658;2023-07-29T06:08:10;18.10;1.00
26907;DHT22;14472;56.880;16.658;2023-07-29T06:10:35;18.20;1.00
26907;DHT22;14472;56.880;16.658;2023-07-29T06:13:01;18.20;1.00
26907;DHT22;14472;56.880;16.658;2023-07-29T06:15:27;18.30;1.00
26907;DHT22;14472;56.880;16.658;2023-07-29T06:17:53;18.30;1.00
26907;DHT22;14472;56.880;16.658;2023-07-29T06:20:19;18.30;1.00
26907;DHT22;14472;56.880;16.658;2023-07-29T06:22:44;18.40;1.00
26907;DHT22;14472;56.880;16.658;2023-07-29T06:25:10;18.40;1.00
26907;DHT22;14472;56.880;16.658;2023-07-29T06:27:36;18.50;1.00
26907;DHT22;14472;56.880;16.658;2023-07-29T06:30:02;18.50;1.00
26907;DHT22;14472;56.880;16.658;2023-07-29T06:32:28;18.50;1.00
26907;DHT22;14472;56.880;16.658;2023-07-29T06:34:53;18.60;1.00
26907;DHT22;14472;56.880;16.658;2023-07-29T06:37:20;18.70;1.00
26907;DHT22;14472;56.880;16.658;2023-07-29T06:39:46;18.70;1.00
26907;DHT22;14472;56.880;16.658;2023-07-29T06:42:12;18.80;1.00
26907;DHT22;14472;56.880;16.658;2023-07-29T06:44:38;18.80;1.00
26907;DHT22;14472;56.880;16.658;2023-07-29T06:47:03;18.80;1.00
26907;DHT22;14472;56.880;16.658;2023-07-29T06:49:29;18.90;1.00
26907;DHT22;14472;56.880;16.658;2023-07-29T06:51:55;18.90;1.00
26907;DHT22;14472;56.880;16.658;2023-07-29T06:54:24;19.00;1.00
26907;DHT22;14472;56.880;16.658;2023-07-29T06:56:51;19.10;1.00
26907;DHT22;14472;56.880;16.658;2023-07-29T06:59:16;19.20;1.00
26907;DHT22;14472;56.880;16.658;2023-07-29T07:01:42;19.20;1.00
26907;DHT22;14472;56.880;16.658;2023-07-29T07:04:08;19.30;1.00
26907;DHT22;14472;56.880;16.658;2023-07-29T07:06:34;19.30;1.00
26907;DHT22;14472;56.880;16.658;2023-07-29T07:08:59;19.40;1.00
26907;DHT22;14472;56.880;16.658;2023-07-29T07:11:25;19.50;1.00
26907;DHT22;14472;56.880;16.658;2023-07-29T07:13:51;19.60;1.00
26907;DHT22;14472;56.880;16.658;2023-07-29T07:16:17;19.60;1.00
26907;DHT22;14472;56.880;16.658;2023-07-29T07:18:43;19.60;1.00
26907;DHT22;14472;56.880;16.658;2023-07-29T07:21:08;19.70;1.00
26907;DHT22;14472;56.880;16.658;2023-07-29T07:23:34;19.70;1.00
26907;DHT22;14472;56.880;16.658;2023-07-29T07:26:00;19.90;1.00
26907;DHT22;14472;56.880;16.658;2023-07-29T07:28:25;19.90;1.00
26907;DHT22;14472;56.880;16.658;2023-07-29T07:30:51;19.90;1.00
26907;DHT22;14472;56.880;16.658;2023-07-29T07:33:17;20.00;1.00
26907;DHT22;14472;56.880;16.658;2023-07-29T07:35:43;20.10;1.00
26907;DHT22;14472;56.880;16.658;2023-07-29T07:38:09;20.20;1.00
26907;DHT22;14472;56.880;16.658;2023-07-29T07:40:36;20.20;1.00
26907;DHT22;14472;56.880;16.658;2023-07-29T07:43:02;20.20;1.00
26907;DHT22;14472;56.880;16.658;2023-07-29T07:45:27;20.30;1.00
26907;DHT22;14472;56.880;16.658;2023-07-29T07:47:53;20.30;1.00
26907;DHT22;14472;56.880;16.658;2023-07-29T07:50:19;20.50;1.00
26907;DHT22;14472;56.880;16.658;2023-07-29T07:52:45;20.50;1.00
26907;DHT22;14472;56.880;16.658;2023-07-29T07:55:11;20.50;1.00
26907;DHT22;14472;56.880;16.658;2023-07-29T07:57:37;20.50;1.00
26907;DHT22;14472;56.880;16.658;2023-07-29T08:00:03;20.60;1.00
26907;DHT22;14472;56.880;16.658;2023-07-29T08:02:30;20.70;1.00
26907;DHT22;14472;56.880;16.658;2023-07-29T08:04:55;20.70;1.00
26907;DHT22;14472;56.880;16.658;2023-07-29T08:07:21;20.80;1.00
26907;DHT22;14472;56.880;16.658;2023-07-29T08:09:47;20.90;1.00
26907;DHT22;14472;56.880;16.658;2023-07-29T08:12:13;21.00;1.00
26907;DHT22;14472;56.880;16.658;2023-07-29T08:14:38;21.00;1.00
26907;DHT22;14472;56.880;16.658;2023-07-29T08:17:04;21.10;1.00
26907;DHT22;14472;56.880;16.658;2023-07-29T08:19:30;21.10;1.00
26907;DHT22;14472;56.880;16.658;2023-07-29T08:21:56;21.20;1.00
26907;DHT22;14472;56.880;16.658;2023-07-29T08:24:21;21.30;1.00
26907;DHT22;14472;56.880;16.658;2023-07-29T08:26:47;21.30;1.00
26907;DHT22;14472;56.880;16.658;2023-07-29T08:29:13;21.30;1.00
26907;DHT22;14472;56.880;16.658;2023-07-29T08:31:39;21.40;1.00
26907;DHT22;14472;56.880;16.658;2023-07-29T08:34:04;21.50;1.00
26907;DHT22;14472;56.880;16.658;2023-07-29T08:36:30;21.60;1.00
26907;DHT22;14472;56.880;16.658;2023-07-29T08:38:56;21.60;1.00
26907;DHT22;14472;56.880;16.658;2023-07-29T08:41:26;21.70;1.00
26907;DHT22;14472;56.880;16.658;2023-07-29T08:44:06;21.70;1.00
26907;DHT22;14472;56.880;16.658;2023-07-29T08:46:33;21.80;1.00
26907;DHT22;14472;56.880;16.658;2023-07-29T08:48:59;21.90;1.00
26907;DHT22;14472;56.880;16.658;2023-07-29T08:51:27;21.90;1.00
26907;DHT22;14472;56.880;16.658;2023-07-29T08:53:55;22.10;1.00
26907;DHT22;14472;56.880;16.658;2023-07-29T08:56:21;22.10;1.00
26907;DHT22;14472;56.880;16.658;2023-07-29T08:58:47;22.20;1.00
26907;DHT22;14472;56.880;16.658;2023-07-29T09:01:13;22.20;1.00
26907;DHT22;14472;56.880;16.658;2023-07-29T09:03:41;22.30;1.00
26907;DHT22;14472;56.880;16.658;2023-07-29T09:06:08;22.40;1.00
26907;DHT22;14472;56.880;16.658;2023-07-29T09:08:34;22.40;1.00
26907;DHT22;14472;56.880;16.658;2023-07-29T09:11:00;22.50;1.00
26907;DHT22;14472;56.880;16.658;2023-07-29T09:13:26;22.60;1.00
26907;DHT22;14472;56.880;16.658;2023-07-29T09:15:57;22.60;1.00
26907;DHT22;14472;56.880;16.658;2023-07-29T09:18:23;22.70;1.00
26907;DHT22;14472;56.880;16.658;2023-07-29T09:20:49;22.70;1.00
26907;DHT22;14472;56.880;16.658;2023-07-29T09:23:16;22.80;1.00
26907;DHT22;14472;56.880;16.658;2023-07-29T09:25:42;22.90;1.00
26907;DHT22;14472;56.880;16.658;2023-07-29T09:28:13;23.00;1.00
26907;DHT22;14472;56.880;16.658;2023-07-29T09:30:41;23.00;1.00
26907;DHT22;14472;56.880;16.658;2023-07-29T09:33:08;23.10;1.00
26907;DHT22;14472;56.880;16.658;2023-07-29T09:35:36;23.20;1.00
26907;DHT22;14472;56.880;16.658;2023-07-29T09:38:06;23.20;1.00
26907;DHT22;14472;56.880;16.658;2023-07-29T09:40:40;23.30;1.00
26907;DHT22;14472;56.880;16.658;2023-07-29T09:43:08;23.30;1.00
26907;DHT22;14472;56.880;16.658;2023-07-29T09:45:35;23.40;1.00
26907;DHT22;14472;56.880;16.658;2023-07-29T09:48:02;23.40;1.00
26907;DHT22;14472;56.880;16.658;2023-07-29T09:50:28;23.40;1.00
26907;DHT22;14472;56.880;16.658;2023-07-29T09:52:55;23.50;1.00
26907;DHT22;14472;56.880;16.658;2023-07-29T09:55:24;23.50;1.00
26907;DHT22;14472;56.880;16.658;2023-07-29T09:58:02;23.50;1.00
26907;DHT22;14472;56.880;16.658;2023-07-29T10:00:32;23.60;1.00
26907;DHT22;14472;56.880;16.658;2023-07-29T10:02:58;23.70;1.00
26907;DHT22;14472;56.880;16.658;2023-07-29T10:05:29;23.70;1.00
26907;DHT22;14472;56.880;16.658;2023-07-29T10:07:55;23.70;1.00
26907;DHT22;14472;56.880;16.658;2023-07-29T10:10:22;23.80;1.00
26907;DHT22;14472;56.880;16.658;2023-07-29T10:12:48;23.80;1.00
26907;DHT22;14472;56.880;16.658;2023-07-29T10:15:15;23.90;1.00
26907;DHT22;14472;56.880;16.658;2023-07-29T10:17:41;23.90;1.00
26907;DHT22;14472;56.880;16.658;2023-07-29T10:20:08;23.90;1.00
26907;DHT22;14472;56.880;16.658;2023-07-29T10:22:39;23.90;1.00
26907;DHT22;14472;56.880;16.658;2023-07-29T10:25:21;23.90;1.00
26907;DHT22;14472;56.880;16.658;2023-07-29T10:28:01;24.00;1.00
26907;DHT22;14472;56.880;16.658;2023-07-29T10:30:30;24.00;1.00
26907;DHT22;14472;56.880;16.658;2023-07-29T10:32:58;24.10;1.00
26907;DHT22;14472;56.880;16.658;2023-07-29T10:35:25;24.10;1.00
26907;DHT22;14472;56.880;16.658;2023-07-29T10:37:53;24.10;1.00
26907;DHT22;14472;56.880;16.658;2023-07-29T10:40:20;24.10;1.00
26907;DHT22;14472;56.880;16.658;2023-07-29T10:43:11;24.10;1.00
26907;DHT22;14472;56.880;16.658;2023-07-29T10:45:41;24.10;1.00
26907;DHT22;14472;56.880;16.658;2023-07-29T10:53:58;24.10;1.00
26907;DHT22;14472;56.880;16.658;2023-07-29T10:56:29;24.10;1.00
26907;DHT22;14472;56.880;16.658;2023-07-29T10:58:56;24.10;1.00
26907;DHT22;14472;56.880;16.658;2023-07-29T11:01:32;24.10;1.00
26907;DHT22;14472;56.880;16.658;2023-07-29T11:12:48;24.10;1.00
26907;DHT22;14472;56.880;16.658;2023-07-29T11:15:17;24.20;1.00
26907;DHT22;14472;56.880;16.658;2023-07-29T11:17:49;24.20;1.00
26907;DHT22;14472;56.880;16.658;2023-07-29T11:20:17;24.20;1.00
26907;DHT22;14472;56.880;16.658;2023-07-29T11:22:43;24.30;1.00
26907;DHT22;14472;56.880;16.658;2023-07-29T11:25:11;24.40;1.00
26907;DHT22;14472;56.880;16.658;2023-07-29T11:27:37;24.50;1.00
26907;DHT22;14472;56.880;16.658;2023-07-29T11:30:05;24.50;1.00
26907;DHT22;14472;56.880;16.658;2023-07-29T11:32:32;24.60;1.00
26907;DHT22;14472;56.880;16.658;2023-07-29T11:35:09;24.60;1.00
26907;DHT22;14472;56.880;16.658;2023-07-29T11:37:37;24.60;1.00
26907;DHT22;14472;56.880;16.658;2023-07-29T11:40:03;24.60;1.00
26907;DHT22;14472;56.880;16.658;2023-07-29T11:42:32;24.60;1.00
26907;DHT22;14472;56.880;16.658;2023-07-29T11:44:58;24.60;1.00
26907;DHT22;14472;56.880;16.658;2023-07-29T11:47:24;24.60;1.00
26907;DHT22;14472;56.880;16.658;2023-07-29T11:49:50;24.70;1.00
26907;DHT22;14472;56.880;16.658;2023-07-29T11:52:16;24.70;1.00
26907;DHT22;14472;56.880;16.658;2023-07-29T11:54:47;24.70;1.00
26907;DHT22;14472;56.880;16.658;2023-07-29T11:57:14;24.80;1.00
26907;DHT22;14472;56.880;16.658;2023-07-29T11:59:41;24.80;1.00
26907;DHT22;14472;56.880;16.658;2023-07-29T12:02:13;24.80;1.00
26907;DHT22;14472;56.880;16.658;2023-07-29T12:04:41;24.80;1.00
26907;DHT22;14472;56.880;16.658;2023-07-29T12:07:07;24.80;1.00
26907;DHT22;14472;56.880;16.658;2023-07-29T12:09:34;24.90;1.00
26907;DHT22;14472;56.880;16.658;2023-07-29T12:12:01;24.80;1.00
26907;DHT22;14472;56.880;16.658;2023-07-29T12:14:30;24.80;1.00
26907;DHT22;14472;56.880;16.658;2023-07-29T12:17:03;24.80;1.00
26907;DHT22;14472;56.880;16.658;2023-07-29T12:19:33;24.90;1.00
26907;DHT22;14472;56.880;16.658;2023-07-29T12:22:04;24.90;1.00
26907;DHT22;14472;56.880;16.658;2023-07-29T12:24:30;24.90;1.00
26907;DHT22;14472;56.880;16.658;2023-07-29T12:26:57;24.90;1.00
26907;DHT22;14472;56.880;16.658;2023-07-29T12:29:23;24.90;1.00
26907;DHT22;14472;56.880;16.658;2023-07-29T12:31:53;24.90;1.00
26907;DHT22;14472;56.880;16.658;2023-07-29T12:34:24;25.00;1.00
26907;DHT22;14472;56.880;16.658;2023-07-29T12:36:51;25.00;1.00
26907;DHT22;14472;56.880;16.658;2023-07-29T12:39:21;25.00;1.00
26907;DHT22;14472;56.880;16.658;2023-07-29T12:41:48;25.10;1.00
26907;DHT22;14472;56.880;16.658;2023-07-29T12:44:14;25.20;1.00
26907;DHT22;14472;56.880;16.658;2023-07-29T12:46:40;25.30;1.00
26907;DHT22;14472;56.880;16.658;2023-07-29T12:49:06;25.30;1.00
26907;DHT22;14472;56.880;16.658;2023-07-29T12:51:32;25.30;1.00
26907;DHT22;14472;56.880;16.658;2023-07-29T12:53:58;25.30;1.00
26907;DHT22;14472;56.880;16.658;2023-07-29T12:56:24;25.30;1.00
26907;DHT22;14472;56.880;16.658;2023-07-29T12:58:50;25.40;1.00
26907;DHT22;14472;56.880;16.658;2023-07-29T13:01:16;25.50;1.00
26907;DHT22;14472;56.880;16.658;2023-07-29T13:03:44;25.50;1.00
26907;DHT22;14472;56.880;16.658;2023-07-29T13:06:10;25.50;1.00
26907;DHT22;14472;56.880;16.658;2023-07-29T13:08:38;25.50;1.00
26907;DHT22;14472;56.880;16.658;2023-07-29T13:11:04;25.60;1.00
26907;DHT22;14472;56.880;16.658;2023-07-29T13:13:30;25.60;1.00
26907;DHT22;14472;56.880;16.658;2023-07-29T13:15:59;25.60;1.00
26907;DHT22;14472;56.880;16.658;2023-07-29T13:18:24;25.50;1.00
26907;DHT22;14472;56.880;16.658;2023-07-29T13:20:50;25.60;1.00
26907;DHT22;14472;56.880;16.658;2023-07-29T13:23:16;25.60;1.00
26907;DHT22;14472;56.880;16.658;2023-07-29T13:25:42;25.60;1.00
26907;DHT22;14472;56.880;16.658;2023-07-29T13:28:11;25.70;1.00
26907;DHT22;14472;56.880;16.658;2023-07-29T13:30:39;25.80;1.00
26907;DHT22;14472;56.880;16.658;2023-07-29T13:33:05;25.70;1.00
26907;DHT22;14472;56.880;16.658;2023-07-29T13:35:31;25.70;1.00
26907;DHT22;14472;56.880;16.658;2023-07-29T13:37:57;25.70;1.00
26907;DHT22;14472;56.880;16.658;2023-07-29T13:40:22;25.70;1.00
26907;DHT22;14472;56.880;16.658;2023-07-29T13:42:48;25.60;1.00
26907;DHT22;14472;56.880;16.658;2023-07-29T13:45:14;25.60;1.00
26907;DHT22;14472;56.880;16.658;2023-07-29T13:47:40;25.60;1.00
26907;DHT22;14472;56.880;16.658;2023-07-29T13:50:06;25.60;1.00
26907;DHT22;14472;56.880;16.658;2023-07-29T13:52:35;25.60;1.00
26907;DHT22;14472;56.880;16.658;2023-07-29T13:55:01;25.50;1.00
26907;DHT22;14472;56.880;16.658;2023-07-29T13:57:27;25.50;1.00
26907;DHT22;14472;56.880;16.658;2023-07-29T13:59:52;25.50;1.00
26907;DHT22;14472;56.880;16.658;2023-07-29T14:02:18;25.50;1.00
26907;DHT22;14472;56.880;16.658;2023-07-29T14:04:44;25.40;1.00
26907;DHT22;14472;56.880;16.658;2023-07-29T14:07:10;25.40;1.00
26907;DHT22;14472;56.880;16.658;2023-07-29T14:09:35;25.40;1.00
26907;DHT22;14472;56.880;16.658;2023-07-29T14:12:01;25.30;1.00
26907;DHT22;14472;56.880;16.658;2023-07-29T14:14:27;25.30;1.00
26907;DHT22;14472;56.880;16.658;2023-07-29T14:16:52;25.30;1.00
26907;DHT22;14472;56.880;16.658;2023-07-29T14:19:18;25.30;1.00
26907;DHT22;14472;56.880;16.658;2023-07-29T14:21:44;25.20;1.00
26907;DHT22;14472;56.880;16.658;2023-07-29T14:24:09;25.20;1.00
26907;DHT22;14472;56.880;16.658;2023-07-29T14:26:35;25.30;1.00
26907;DHT22;14472;56.880;16.658;2023-07-29T14:29:01;25.30;1.00
26907;DHT22;14472;56.880;16.658;2023-07-29T14:31:27;25.30;1.00
26907;DHT22;14472;56.880;16.658;2023-07-29T14:33:52;25.30;1.00
26907;DHT22;14472;56.880;16.658;2023-07-29T14:36:18;25.40;1.00
26907;DHT22;14472;56.880;16.658;2023-07-29T14:38:44;25.40;1.00
26907;DHT22;14472;56.880;16.658;2023-07-29T14:41:09;25.50;1.00
26907;DHT22;14472;56.880;16.658;2023-07-29T14:43:35;25.50;1.00
26907;DHT22;14472;56.880;16.658;2023-07-29T14:46:01;25.50;1.00
26907;DHT22;14472;56.880;16.658;2023-07-29T14:48:28;25.60;1.00
26907;DHT22;14472;56.880;16.658;2023-07-29T14:50:54;25.60;1.00
26907;DHT22;14472;56.880;16.658;2023-07-29T14:53:20;25.60;1.00
26907;DHT22;14472;56.880;16.658;2023-07-29T14:55:45;25.70;1.00
26907;DHT22;14472;56.880;16.658;2023-07-29T14:58:11;25.70;1.00
26907;DHT22;14472;56.880;16.658;2023-07-29T15:00:37;25.80;1.00
26907;DHT22;14472;56.880;16.658;2023-07-29T15:03:03;25.80;1.00
26907;DHT22;14472;56.880;16.658;2023-07-29T15:05:29;25.80;1.00
26907;DHT22;14472;56.880;16.658;2023-07-29T15:07:54;25.80;1.00
26907;DHT22;14472;56.880;16.658;2023-07-29T15:10:20;25.80;1.00
26907;DHT22;14472;56.880;16.658;2023-07-29T15:12:47;25.80;1.00
26907;DHT22;14472;56.880;16.658;2023-07-29T15:15:12;25.80;1.00
26907;DHT22;14472;56.880;16.658;2023-07-29T15:17:38;25.80;1.00
26907;DHT22;14472;56.880;16.658;2023-07-29T15:20:04;25.80;1.00
26907;DHT22;14472;56.880;16.658;2023-07-29T15:22:30;25.70;1.00
26907;DHT22;14472;56.880;16.658;2023-07-29T15:24:59;25.70;1.00
26907;DHT22;14472;56.880;16.658;2023-07-29T15:27:29;25.70;1.00
26907;DHT22;14472;56.880;16.658;2023-07-29T15:29:55;25.60;1.00
26907;DHT22;14472;56.880;16.658;2023-07-29T15:32:21;25.60;1.00
26907;DHT22;14472;56.880;16.658;2023-07-29T15:34:48;25.50;1.00
26907;DHT22;14472;56.880;16.658;2023-07-29T15:37:14;25.50;1.00
26907;DHT22;14472;56.880;16.658;2023-07-29T15:39:40;25.50;1.00
26907;DHT22;14472;56.880;16.658;2023-07-29T15:42:06;25.40;1.00
26907;DHT22;14472;56.880;16.658;2023-07-29T15:44:32;25.40;1.00
26907;DHT22;14472;56.880;16.658;2023-07-29T15:46:58;25.30;1.00
26907;DHT22;14472;56.880;16.658;2023-07-29T15:49:24;25.30;1.00
26907;DHT22;14472;56.880;16.658;2023-07-29T15:51:50;25.20;1.00